createdAt,value
2023-01-02T00:03:56.796Z,11.20
2023-01-02T00:31:13.856Z,12.30
2023-01-02T00:33:41.782Z,11.80
2023-01-02T00:36:12.787Z,11.20
2023-01-02T00:38:40.947Z,11.20
2023-01-02T00:48:40.377Z,11.20
2023-01-02T01:03:29.540Z,11.50
2023-01-02T01:20:44.701Z,10.30
2023-01-02T01:35:34.267Z,11.70
2023-01-02T01:48:02.579Z,12.40
2023-01-02T01:50:36.020Z,11.40
2023-01-02T01:53:11.559Z,11.90
2023-01-02T01:55:45.776Z,11.10
2023-01-02T01:58:41.781Z,11.70
2023-01-02T02:01:15.050Z,11.90
2023-01-02T02:03:46.509Z,11.40
2023-01-02T02:09:06.721Z,11.40
2023-01-02T02:11:35.473Z,10.40
2023-01-02T02:21:55.715Z,11.70
2023-01-02T02:24:56.717Z,10.50
2023-01-02T02:27:43.681Z,11.60
2023-01-02T02:30:23.764Z,12.00
2023-01-02T02:33:25.363Z,10.70
2023-01-02T02:36:29.794Z,11.30
2023-01-02T02:39:29.457Z,11.30
2023-01-02T02:42:50.134Z,11.60
2023-01-02T02:45:48.985Z,11.60
2023-01-02T02:51:18.660Z,11.70
2023-01-02T02:53:58.895Z,12.10
2023-01-02T02:56:27.933Z,11.90
2023-01-02T03:01:30.408Z,12.00
2023-01-02T03:06:36.795Z,11.80
2023-01-02T03:09:29.117Z,13.20
2023-01-02T03:12:11.520Z,12.00
2023-01-02T03:15:06.869Z,11.90
2023-01-02T03:18:00.702Z,12.00
2023-01-02T03:20:38.228Z,11.90
2023-01-02T03:23:11.670Z,12.70
2023-01-02T03:25:44.361Z,16.20
2023-01-02T03:28:15.631Z,12.10
2023-01-02T03:30:44.668Z,12.50
2023-01-02T03:33:20.412Z,12.50
2023-01-02T03:35:57.183Z,12.20
2023-01-02T03:38:35.723Z,12.10
2023-01-02T03:41:11.107Z,13.30
2023-01-02T03:43:41.550Z,12.10
2023-01-02T03:47:03.100Z,12.30
2023-01-02T03:49:33.468Z,12.20
2023-01-02T03:57:08.516Z,12.40
2023-01-02T04:00:04.010Z,11.50
2023-01-02T04:03:10.948Z,12.10
2023-01-02T04:05:48.096Z,11.20
2023-01-02T04:08:31.952Z,11.40
2023-01-02T04:11:02.593Z,11.80
2023-01-02T04:13:40.562Z,11.90
2023-01-02T04:16:13.513Z,12.20
2023-01-02T04:18:48.232Z,12.00
2023-01-02T04:21:22.341Z,12.10
2023-01-02T04:24:08.217Z,12.20
2023-01-02T04:27:03.849Z,11.80
2023-01-02T04:32:32.693Z,12.00
2023-01-02T04:35:06.060Z,12.00
2023-01-02T04:37:41.354Z,12.20
2023-01-02T04:40:30.755Z,12.60
2023-01-02T04:45:26.175Z,12.00
2023-01-02T04:50:21.546Z,13.40
2023-01-02T04:55:17.075Z,11.80
2023-01-02T05:00:13.104Z,12.00
2023-01-02T05:02:41.071Z,12.00
2023-01-02T05:05:10.891Z,12.00
2023-01-02T05:10:08.986Z,12.60
2023-01-02T05:12:37.808Z,12.30
2023-01-02T05:15:08.397Z,12.10
2023-01-02T05:17:41.460Z,12.00
2023-01-02T05:20:13.374Z,11.70
2023-01-02T05:23:01.562Z,12.10
2023-01-02T05:25:33.746Z,12.20
2023-01-02T05:28:03.380Z,12.20
2023-01-02T05:30:31.033Z,12.10
2023-01-02T05:32:58.544Z,11.50
2023-01-02T05:35:32.120Z,12.00
2023-01-02T05:38:01.278Z,12.70
2023-01-02T05:45:26.821Z,11.50
2023-01-02T05:47:57.602Z,12.00
2023-01-02T05:50:25.177Z,12.20
2023-01-02T05:55:20.553Z,12.00
2023-01-02T05:57:48.081Z,12.10
2023-01-02T06:02:47.989Z,12.00
2023-01-02T06:05:16.555Z,12.30
2023-01-02T06:07:44.189Z,11.70
2023-01-02T06:10:11.804Z,12.60
2023-01-02T06:12:39.374Z,12.10
2023-01-02T06:15:07.875Z,12.10
2023-01-02T06:17:35.493Z,12.00
2023-01-02T06:37:18.385Z,11.00
2023-01-02T06:39:45.911Z,11.20
2023-01-02T06:42:13.877Z,11.10
2023-01-02T06:47:09.307Z,11.90
2023-01-02T06:49:36.870Z,11.20
2023-01-02T06:54:33.141Z,11.90
2023-01-02T06:57:00.730Z,12.90
2023-01-02T06:59:28.270Z,12.50
2023-01-02T07:09:20.607Z,11.00
2023-01-02T07:11:48.452Z,11.00
2023-01-02T07:14:15.953Z,11.80
2023-01-02T07:21:39.398Z,11.80
2023-01-02T07:24:07.357Z,11.90
2023-01-02T07:29:02.866Z,11.80
2023-01-02T07:33:58.985Z,11.70
2023-01-02T07:38:56.047Z,12.30
2023-01-02T07:41:25.911Z,12.00
2023-01-02T07:43:56.039Z,11.90
2023-01-02T07:46:24.406Z,11.60
2023-01-02T07:48:51.970Z,11.70
2023-01-02T07:51:26.321Z,13.90
2023-01-02T07:56:26.185Z,11.80
2023-01-02T07:58:54.009Z,11.40
2023-01-02T08:01:21.649Z,11.00
2023-01-02T08:03:49.476Z,12.00
2023-01-02T08:06:18.659Z,11.90
2023-01-02T08:08:46.289Z,12.10
2023-01-02T08:11:21.760Z,11.30
2023-01-02T08:13:49.995Z,12.20
2023-01-02T08:16:22.290Z,10.90
2023-01-02T08:18:55.540Z,12.10
2023-01-02T08:21:25.144Z,12.00
2023-01-02T08:31:21.199Z,12.00
2023-01-02T08:33:49.234Z,12.80
2023-01-02T08:41:15.328Z,12.10
2023-01-02T08:56:27.402Z,12.00
2023-01-02T08:59:07.481Z,13.30
2023-01-02T09:01:35.847Z,12.60
2023-01-02T09:11:50.078Z,12.10
2023-01-02T09:14:20.510Z,12.10
2023-01-02T09:21:45.003Z,11.90
2023-01-02T09:31:41.315Z,12.00
2023-01-02T09:39:05.669Z,11.90
2023-01-02T09:44:51.736Z,12.00
2023-01-02T09:47:24.760Z,11.80
2023-01-02T09:50:18.942Z,11.80
2023-01-02T09:52:55.510Z,12.00
2023-01-02T09:58:36.583Z,11.70
2023-01-02T10:06:12.988Z,12.20
2023-01-02T10:08:56.503Z,11.20
2023-01-02T10:11:53.560Z,11.90
2023-01-02T10:14:48.968Z,11.80
2023-01-02T10:17:17.400Z,12.50
2023-01-02T10:20:08.309Z,11.60
2023-01-02T10:22:53.072Z,11.60
2023-01-02T10:25:45.563Z,11.20
2023-01-02T10:28:43.747Z,12.30
2023-01-02T10:31:25.934Z,11.00
2023-01-02T10:34:02.448Z,11.10
2023-01-02T10:36:40.044Z,11.40
2023-01-02T10:39:13.898Z,10.40
2023-01-02T10:44:28.499Z,10.70
2023-01-02T10:52:07.425Z,10.40
2023-01-02T10:54:59.919Z,10.60
2023-01-02T10:57:46.808Z,11.20
2023-01-02T11:00:35.894Z,9.90
2023-01-02T11:03:17.059Z,10.70
2023-01-02T11:05:51.378Z,10.50
2023-01-02T11:08:23.085Z,11.10
2023-01-02T11:10:51.305Z,11.10
2023-01-02T11:13:21.526Z,10.50
2023-01-02T11:16:07.508Z,10.50
2023-01-02T11:18:35.794Z,10.30
2023-01-02T11:23:41.439Z,10.40
2023-01-02T11:26:24.488Z,10.30
2023-01-02T11:28:54.874Z,10.80
2023-01-02T11:31:23.392Z,10.30
2023-01-02T11:36:19.926Z,10.30
2023-01-02T11:38:56.579Z,10.40
2023-01-02T11:44:28.498Z,10.40
2023-01-02T11:46:57.528Z,10.40
2023-01-02T11:49:35.793Z,10.10
2023-01-02T11:52:05.703Z,10.40
2023-01-02T11:54:50.862Z,10.30
2023-01-02T11:57:50.478Z,10.30
2023-01-02T12:00:19.818Z,10.20
2023-01-02T12:02:51.136Z,10.90
2023-01-02T12:06:06.716Z,10.70
2023-01-02T12:09:15.064Z,10.10
2023-01-02T12:12:18.240Z,9.70
2023-01-02T12:15:07.298Z,10.10
2023-01-02T12:18:28.134Z,10.30
2023-01-02T12:21:15.178Z,10.00
2023-01-02T12:24:03.759Z,10.70
2023-01-02T12:26:35.031Z,9.80
2023-01-02T12:29:46.677Z,10.10
2023-01-02T12:32:55.534Z,9.80
2023-01-02T12:37:58.241Z,9.70
2023-01-02T12:41:06.867Z,9.90
2023-01-02T12:44:00.350Z,9.60
2023-01-02T12:49:35.200Z,9.50
2023-01-02T12:54:55.158Z,9.60
2023-01-02T13:00:22.152Z,9.00
2023-01-02T13:05:53.661Z,10.30
2023-01-02T13:08:33.921Z,9.10
2023-01-02T13:11:06.078Z,9.00
2023-01-02T13:13:37.020Z,9.70
2023-01-02T13:16:24.469Z,9.90
2023-01-02T13:19:07.598Z,9.70
2023-01-02T13:21:58.071Z,9.60
2023-01-02T13:24:26.556Z,10.10
2023-01-02T13:26:57.564Z,9.90
2023-01-02T13:29:40.943Z,13.20
2023-01-02T13:32:11.469Z,9.80
2023-01-02T13:34:51.819Z,9.90
2023-01-02T13:37:24.876Z,10.40
2023-01-02T13:40:03.122Z,10.10
2023-01-02T13:42:55.463Z,8.80
2023-01-02T13:45:30.997Z,9.70
2023-01-02T13:48:37.546Z,9.80
2023-01-02T13:51:14.433Z,10.10
2023-01-02T13:53:51.198Z,9.40
2023-01-02T13:56:23.432Z,9.10
2023-01-02T13:59:42.125Z,9.60
2023-01-02T14:02:20.900Z,9.80
2023-01-02T14:04:57.744Z,8.80
2023-01-02T14:10:13.535Z,9.20
2023-01-02T14:13:07.687Z,9.30
2023-01-02T14:16:15.574Z,9.70
2023-01-02T14:21:18.342Z,9.40
2023-01-02T14:24:16.467Z,13.20
2023-01-02T14:26:39.779Z,10.20
2023-01-02T14:29:17.219Z,9.70
2023-01-02T14:34:23.713Z,9.30
2023-01-02T14:36:54.037Z,9.10
2023-01-02T14:39:24.643Z,9.40
2023-01-02T14:42:29.422Z,9.60
2023-01-02T14:45:05.319Z,9.00
2023-01-02T14:47:39.742Z,9.40
2023-01-02T14:50:16.296Z,9.00
2023-01-02T14:53:41.281Z,9.60
2023-01-02T14:56:35.580Z,9.10
2023-01-02T14:59:05.018Z,9.30
2023-01-02T15:01:43.313Z,8.80
2023-01-02T15:07:23.206Z,8.70
2023-01-02T15:10:16.411Z,8.90
2023-01-02T15:13:09.321Z,9.00
2023-01-02T15:15:50.145Z,9.00
2023-01-02T15:20:55.769Z,8.90
2023-01-02T15:23:26.469Z,8.90
2023-01-02T15:26:31.824Z,8.80
2023-01-02T15:31:15.798Z,9.10
2023-01-02T15:36:19.995Z,8.70
2023-01-02T15:41:20.444Z,9.10
2023-01-02T15:54:14.346Z,8.90
2023-01-02T15:59:29.808Z,8.80
2023-01-02T16:04:33.745Z,8.60
2023-01-02T16:07:20.527Z,8.90
2023-01-02T16:09:56.074Z,8.40
2023-01-02T16:14:56.804Z,8.70
2023-01-02T16:17:34.997Z,9.80
2023-01-02T16:20:13.671Z,8.50
2023-01-02T16:22:58.345Z,8.50
2023-01-02T16:27:59.477Z,8.80
2023-01-02T16:30:37.874Z,9.10
2023-01-02T16:33:30.219Z,8.80
2023-01-02T16:36:20.335Z,8.40
2023-01-02T16:38:54.379Z,8.70
2023-01-02T16:41:44.627Z,8.60
2023-01-02T16:44:19.986Z,8.80
2023-01-02T16:46:49.478Z,8.60
2023-01-02T16:49:21.624Z,8.70
2023-01-02T16:51:52.773Z,8.70
2023-01-02T16:54:21.137Z,8.50
2023-01-02T16:56:50.353Z,8.70
2023-01-02T17:04:17.272Z,8.40
2023-01-02T17:14:33.150Z,8.90
2023-01-02T17:31:52.209Z,9.20
2023-01-02T17:34:19.823Z,8.30
2023-01-02T18:09:12.303Z,8.70
2023-01-02T18:14:24.477Z,8.50
2023-01-02T18:19:29.815Z,8.40
2023-01-02T18:24:32.639Z,8.40
2023-01-02T18:27:20.644Z,8.50
2023-01-02T18:30:13.132Z,8.30
2023-01-02T18:32:49.553Z,8.00
2023-01-02T18:38:34.320Z,7.10
2023-01-02T18:41:21.435Z,8.30
2023-01-02T18:46:23.450Z,7.70
2023-01-02T18:51:24.413Z,8.80
2023-01-02T18:53:54.588Z,8.10
2023-01-02T18:59:27.022Z,8.10
2023-01-02T19:01:57.915Z,7.30
2023-01-02T19:04:33.094Z,7.80
2023-01-02T19:07:17.021Z,7.30
2023-01-02T19:12:34.091Z,7.60
2023-01-02T19:15:28.570Z,7.60
2023-01-02T19:18:02.104Z,7.70
2023-01-02T19:20:30.950Z,7.20
2023-01-02T19:23:00.109Z,7.00
2023-01-02T19:27:56.729Z,7.90
2023-01-02T19:30:38.076Z,7.40
2023-01-02T19:33:33.475Z,7.30
2023-01-02T19:36:03.269Z,7.20
2023-01-02T19:38:33.913Z,7.00
2023-01-02T19:45:59.732Z,7.30
2023-01-02T19:55:52.840Z,7.20
2023-01-02T20:13:11.234Z,7.00
2023-01-02T20:40:26.075Z,7.00
2023-01-02T21:30:43.562Z,6.40
2023-01-02T21:33:16.586Z,6.40
2023-01-02T21:35:46.310Z,6.70
2023-01-02T22:40:28.598Z,5.50
2023-01-02T22:45:43.997Z,6.70
2023-01-02T22:48:22.362Z,6.50
2023-01-02T22:50:55.173Z,5.70
2023-01-02T22:53:32.948Z,5.60
2023-01-02T22:56:10.917Z,5.40
2023-01-02T23:01:33.394Z,6.30
2023-01-02T23:21:45.597Z,5.40
2023-01-02T23:24:15.029Z,6.80
2023-01-02T23:26:46.962Z,4.70
2023-01-02T23:31:45.897Z,6.10
2023-01-02T23:34:17.039Z,5.50
2023-01-02T23:39:16.681Z,5.30
2023-01-02T23:41:45.672Z,5.10
2023-01-02T23:44:14.492Z,5.70
2023-01-02T23:46:42.970Z,5.70
2023-01-02T23:49:11.468Z,5.00
2023-01-02T23:54:10.308Z,5.70
2023-01-02T23:56:40.817Z,5.10
2023-01-02T23:59:12.537Z,5.20
